Time;durP1;ratioP1;P1;durP2;ratioP2;P2;SDS_P1;SDS_P2;PMS_P1;PMS_P2;Temp;Humidity;BMP_temperature;BMP_pressure;BME280_temperature;BME280_humidity;BME280_pressure;Samples;Min_cycle;Max_cycle;Signal;HPM_P1;HPM_P2
2023/04/08 00:01:27;;;;;;;10.18;3.70;;;;;;;;;;4992390;28;20084;-68
2023/04/08 00:03:52;;;;;;;10.07;3.60;;;;;;;;;;5005112;28;20045;-69
2023/04/08 00:06:18;;;;;;;9.20;3.55;;;;;;;;;;5003310;28;20072;-69
2023/04/08 00:08:43;;;;;;;8.63;4.25;;;;;;;;;;5002575;28;20130;-69
2023/04/08 00:11:08;;;;;;;10.52;3.92;;;;;;;;;;5006327;28;20046;-69
2023/04/08 00:13:34;;;;;;;9.80;3.85;;;;;;;;;;5014213;28;20129;-69
2023/04/08 00:15:59;;;;;;;8.88;3.38;;;;;;;;;;5014457;28;20420;-69
2023/04/08 00:18:26;;;;;;;10.68;4.10;;;;;;;;;;5008795;28;20092;-69
2023/04/08 00:20:51;;;;;;;13.25;4.15;;;;;;;;;;5006884;28;20045;-69
2023/04/08 00:23:16;;;;;;;12.85;4.15;;;;;;;;;;5003677;28;20045;-69
2023/04/08 00:25:42;;;;;;;9.23;4.05;;;;;;;;;;5015274;28;20037;-69
2023/04/08 00:28:07;;;;;;;10.95;4.03;;;;;;;;;;5025432;28;20041;-68
2023/04/08 00:30:33;;;;;;;9.63;3.92;;;;;;;;;;5028199;28;20044;-69
2023/04/08 00:32:58;;;;;;;10.27;3.65;;;;;;;;;;5029003;28;20102;-69
2023/04/08 00:35:24;;;;;;;10.95;3.70;;;;;;;;;;5027966;28;20497;-69
2023/04/08 00:37:50;;;;;;;8.93;4.13;;;;;;;;;;4999350;28;20030;-69
2023/04/08 00:40:15;;;;;;;8.95;3.63;;;;;;;;;;5005973;28;20030;-69
2023/04/08 00:42:40;;;;;;;11.50;3.60;;;;;;;;;;5018682;28;20072;-69
2023/04/08 00:45:06;;;;;;;10.88;4.35;;;;;;;;;;5008392;28;20042;-68
2023/04/08 00:47:32;;;;;;;13.98;3.78;;;;;;;;;;5009055;28;20025;-68
2023/04/08 00:49:58;;;;;;;10.82;3.85;;;;;;;;;;5006204;28;20024;-69
2023/04/08 00:52:23;;;;;;;8.55;3.88;;;;;;;;;;5009937;28;20125;-68
2023/04/08 00:54:48;;;;;;;7.05;3.67;;;;;;;;;;5006640;28;20038;-69
2023/04/08 00:57:14;;;;;;;8.23;3.38;;;;;;;;;;5009154;28;20034;-69
2023/04/08 00:59:40;;;;;;;16.92;4.65;;;;;;;;;;5007527;28;20136;-69
2023/04/08 01:02:41;;;;;;;10.45;3.58;;;;;;;;;;5006808;28;20037;-69
2023/04/08 01:05:29;;;;;;;12.65;3.97;;;;;;;;;;5012649;28;20041;-69
2023/04/08 01:07:58;;;;;;;10.90;3.95;;;;;;;;;;4975848;28;20029;-69
2023/04/08 01:10:33;;;;;;;10.07;3.67;;;;;;;;;;5005560;28;20039;-68
2023/04/08 01:13:03;;;;;;;8.85;3.80;;;;;;;;;;5003606;28;20133;-68
2023/04/08 01:15:30;;;;;;;9.23;3.55;;;;;;;;;;5010246;28;20034;-69
2023/04/08 01:17:57;;;;;;;7.85;3.90;;;;;;;;;;5014768;28;20049;-69
2023/04/08 01:20:24;;;;;;;12.07;3.72;;;;;;;;;;5007117;28;20045;-68
2023/04/08 01:23:23;;;;;;;13.25;3.83;;;;;;;;;;5001910;28;20033;-68
2023/04/08 01:25:50;;;;;;;13.50;3.88;;;;;;;;;;4999753;28;20040;-68
2023/04/08 01:28:18;;;;;;;7.32;3.58;;;;;;;;;;5007780;28;20044;-69
2023/04/08 01:30:45;;;;;;;7.10;3.40;;;;;;;;;;5008390;28;20034;-69
2023/04/08 01:33:12;;;;;;;7.80;4.15;;;;;;;;;;5007642;28;20488;-69
2023/04/08 01:35:38;;;;;;;6.65;3.35;;;;;;;;;;5004571;28;20081;-69
2023/04/08 01:38:06;;;;;;;8.05;2.97;;;;;;;;;;5002757;28;20139;-69
2023/04/08 01:40:34;;;;;;;10.90;3.38;;;;;;;;;;5012215;28;20030;-69
2023/04/08 01:43:00;;;;;;;10.82;3.55;;;;;;;;;;5007773;28;20128;-69
2023/04/08 01:45:27;;;;;;;14.60;3.92;;;;;;;;;;5007297;28;20473;-69
2023/04/08 01:47:52;;;;;;;9.68;3.45;;;;;;;;;;5007397;28;20815;-69
2023/04/08 01:50:19;;;;;;;10.32;4.35;;;;;;;;;;5007753;28;20034;-69
2023/04/08 01:52:47;;;;;;;13.73;4.18;;;;;;;;;;5006458;28;20033;-69
2023/04/08 01:55:13;;;;;;;6.72;3.58;;;;;;;;;;5007862;28;20584;-69
2023/04/08 01:57:40;;;;;;;12.05;4.55;;;;;;;;;;5005089;28;20049;-69
2023/04/08 02:00:11;;;;;;;8.68;4.32;;;;;;;;;;5005134;28;20081;-69
2023/04/08 02:02:37;;;;;;;10.32;3.80;;;;;;;;;;5005550;28;20064;-69
2023/04/08 02:05:03;;;;;;;9.25;4.18;;;;;;;;;;5007147;28;20038;-69
2023/04/08 02:07:29;;;;;;;13.05;4.22;;;;;;;;;;5007225;28;20032;-68
2023/04/08 02:09:55;;;;;;;10.18;4.65;;;;;;;;;;5000061;28;20038;-69
2023/04/08 02:12:21;;;;;;;10.25;4.03;;;;;;;;;;5005810;28;20045;-69
2023/04/08 02:14:46;;;;;;;13.45;4.35;;;;;;;;;;5001422;28;20034;-69
2023/04/08 02:17:30;;;;;;;8.85;4.10;;;;;;;;;;5009166;28;20052;-68
2023/04/08 02:20:05;;;;;;;7.40;3.72;;;;;;;;;;5008114;28;20022;-69
2023/04/08 02:22:39;;;;;;;12.23;4.05;;;;;;;;;;5007225;28;20026;-69
2023/04/08 02:25:09;;;;;;;12.30;3.85;;;;;;;;;;5006483;28;20041;-68
2023/04/08 02:27:36;;;;;;;11.45;3.60;;;;;;;;;;5001862;28;20053;-68
2023/04/08 02:30:04;;;;;;;10.27;4.28;;;;;;;;;;5003107;28;20517;-68
2023/04/08 02:32:32;;;;;;;10.50;4.03;;;;;;;;;;5004151;28;20030;-68
2023/04/08 02:35:00;;;;;;;7.97;3.75;;;;;;;;;;5006983;28;20038;-69
2023/04/08 02:37:27;;;;;;;9.75;3.63;;;;;;;;;;5006667;28;20744;-69
2023/04/08 02:39:52;;;;;;;7.68;3.90;;;;;;;;;;5010270;28;20072;-68
2023/04/08 02:42:18;;;;;;;12.38;4.05;;;;;;;;;;5011655;28;20080;-69
2023/04/08 02:44:43;;;;;;;11.45;3.95;;;;;;;;;;4999774;28;20120;-69
2023/04/08 02:47:08;;;;;;;8.05;3.85;;;;;;;;;;5012886;28;20034;-68
2023/04/08 02:49:34;;;;;;;12.27;4.18;;;;;;;;;;5003979;28;20457;-69
2023/04/08 02:51:59;;;;;;;9.43;3.55;;;;;;;;;;5001931;28;20038;-68
2023/04/08 02:54:24;;;;;;;9.75;4.38;;;;;;;;;;5005076;28;20168;-68
2023/04/08 02:56:50;;;;;;;10.23;4.45;;;;;;;;;;5000339;28;20154;-69
2023/04/08 02:59:15;;;;;;;8.93;4.25;;;;;;;;;;4997141;28;20166;-69
2023/04/08 03:01:41;;;;;;;9.90;4.32;;;;;;;;;;5018387;28;20086;-69
2023/04/08 03:04:07;;;;;;;8.85;4.20;;;;;;;;;;5019587;28;20046;-68
2023/04/08 03:06:32;;;;;;;10.75;4.65;;;;;;;;;;5006346;28;20056;-69
2023/04/08 03:08:57;;;;;;;10.75;4.00;;;;;;;;;;5005723;28;20042;-68
2023/04/08 03:11:23;;;;;;;8.40;4.30;;;;;;;;;;5001108;28;20050;-68
2023/04/08 03:13:48;;;;;;;9.90;4.55;;;;;;;;;;4996832;28;20979;-69
2023/04/08 03:16:14;;;;;;;9.70;4.18;;;;;;;;;;5007745;28;20022;-68
2023/04/08 03:18:39;;;;;;;11.60;4.50;;;;;;;;;;5010033;28;20053;-69
2023/04/08 03:21:05;;;;;;;10.60;4.13;;;;;;;;;;5006061;28;20524;-68
2023/04/08 03:23:30;;;;;;;8.65;3.97;;;;;;;;;;5000757;28;20038;-69
2023/04/08 03:25:56;;;;;;;12.57;4.22;;;;;;;;;;5001179;28;20089;-67
2023/04/08 03:28:21;;;;;;;10.63;4.55;;;;;;;;;;5006134;28;20034;-69
2023/04/08 03:30:46;;;;;;;13.80;4.55;;;;;;;;;;4999923;28;20048;-69
2023/04/08 03:33:11;;;;;;;9.63;3.83;;;;;;;;;;5001040;28;20406;-69
2023/04/08 03:35:37;;;;;;;11.43;4.72;;;;;;;;;;5003367;28;20036;-69
2023/04/08 03:38:03;;;;;;;11.57;4.47;;;;;;;;;;5006293;28;20025;-69
2023/04/08 03:40:28;;;;;;;10.07;4.43;;;;;;;;;;5004612;28;20030;-69
2023/04/08 03:42:54;;;;;;;12.00;5.07;;;;;;;;;;4998479;28;20601;-69
2023/04/08 03:45:19;;;;;;;12.50;4.80;;;;;;;;;;5001747;28;20030;-69
2023/04/08 03:47:44;;;;;;;10.10;3.85;;;;;;;;;;4999217;28;20041;-68
2023/04/08 03:50:10;;;;;;;11.02;4.35;;;;;;;;;;5002431;28;20026;-69
2023/04/08 03:52:35;;;;;;;9.93;4.22;;;;;;;;;;5005896;28;20033;-69
2023/04/08 03:55:01;;;;;;;9.27;4.13;;;;;;;;;;5004549;28;20052;-69
2023/04/08 03:57:26;;;;;;;12.35;4.55;;;;;;;;;;4997386;28;20035;-69
2023/04/08 03:59:51;;;;;;;9.20;4.30;;;;;;;;;;5002087;28;20046;-69
2023/04/08 04:02:17;;;;;;;11.95;5.68;;;;;;;;;;5007583;28;20037;-68
2023/04/08 04:04:42;;;;;;;11.48;4.88;;;;;;;;;;5012139;28;20022;-68
2023/04/08 04:07:08;;;;;;;11.15;4.18;;;;;;;;;;5002748;28;20493;-69
2023/04/08 04:09:34;;;;;;;10.15;4.70;;;;;;;;;;5007060;28;20030;-69
2023/04/08 04:11:59;;;;;;;11.25;4.63;;;;;;;;;;5005258;28;20428;-69
2023/04/08 04:14:25;;;;;;;9.05;4.45;;;;;;;;;;5009996;28;20088;-69
2023/04/08 04:16:50;;;;;;;12.25;4.90;;;;;;;;;;5009155;28;20030;-69
2023/04/08 04:19:17;;;;;;;17.17;4.93;;;;;;;;;;5007582;28;20018;-69
2023/04/08 04:21:42;;;;;;;13.38;5.38;;;;;;;;;;5009214;28;20122;-69
2023/04/08 04:24:08;;;;;;;12.48;4.65;;;;;;;;;;5006505;28;20117;-69
2023/04/08 04:26:33;;;;;;;14.95;4.55;;;;;;;;;;4999646;28;20042;-69
2023/04/08 04:28:58;;;;;;;8.95;4.50;;;;;;;;;;5015155;28;20026;-68
2023/04/08 04:31:25;;;;;;;12.82;4.95;;;;;;;;;;5007154;28;20029;-69
2023/04/08 04:33:51;;;;;;;13.35;4.78;;;;;;;;;;4997574;28;20121;-70
2023/04/08 04:36:16;;;;;;;11.93;5.47;;;;;;;;;;5028494;28;20148;-69
2023/04/08 04:38:42;;;;;;;15.02;4.78;;;;;;;;;;5006711;28;20037;-69
2023/04/08 04:41:08;;;;;;;10.40;4.35;;;;;;;;;;5003399;28;20535;-69
2023/04/08 04:43:33;;;;;;;12.32;5.45;;;;;;;;;;5007603;28;20108;-69
2023/04/08 04:45:59;;;;;;;8.77;4.40;;;;;;;;;;5008392;28;20109;-70
2023/04/08 04:48:25;;;;;;;12.60;4.95;;;;;;;;;;5009000;28;20036;-69
2023/04/08 04:50:55;;;;;;;12.65;4.90;;;;;;;;;;5012822;28;20030;-69
2023/04/08 04:53:20;;;;;;;12.93;5.13;;;;;;;;;;5007002;28;20042;-69
2023/04/08 04:55:45;;;;;;;12.00;4.55;;;;;;;;;;5001758;28;20145;-69
2023/04/08 04:58:11;;;;;;;15.90;6.43;;;;;;;;;;5007835;28;20038;-69
2023/04/08 05:00:36;;;;;;;14.07;6.10;;;;;;;;;;5008383;28;20113;-69
2023/04/08 05:03:01;;;;;;;15.93;5.70;;;;;;;;;;5008563;28;20117;-69
2023/04/08 05:05:26;;;;;;;10.93;5.22;;;;;;;;;;5008117;28;20026;-69
2023/04/08 05:07:52;;;;;;;11.50;5.22;;;;;;;;;;5004629;28;20026;-69
2023/04/08 05:10:18;;;;;;;13.10;5.25;;;;;;;;;;5000750;28;20172;-69
2023/04/08 05:12:43;;;;;;;11.32;5.38;;;;;;;;;;5006802;28;20462;-69
2023/04/08 05:15:09;;;;;;;11.65;4.72;;;;;;;;;;5007434;28;20417;-69
2023/04/08 05:17:34;;;;;;;13.23;4.78;;;;;;;;;;5008163;28;20022;-69
2023/04/08 05:19:59;;;;;;;14.13;4.72;;;;;;;;;;5008278;28;20091;-69
2023/04/08 05:22:25;;;;;;;12.75;5.10;;;;;;;;;;5004436;28;20018;-69
2023/04/08 05:24:50;;;;;;;10.15;5.00;;;;;;;;;;5007714;28;20534;-69
2023/04/08 05:27:15;;;;;;;11.35;5.15;;;;;;;;;;5006313;28;20042;-69
2023/04/08 05:29:41;;;;;;;12.00;5.35;;;;;;;;;;5012715;28;20057;-69
2023/04/08 05:32:06;;;;;;;16.02;5.18;;;;;;;;;;5006089;28;20022;-69
2023/04/08 05:34:32;;;;;;;10.85;5.03;;;;;;;;;;4996207;28;20109;-69
2023/04/08 05:36:57;;;;;;;16.55;5.40;;;;;;;;;;5007220;28;20042;-68
2023/04/08 05:39:22;;;;;;;12.85;5.53;;;;;;;;;;5007697;28;20057;-69
2023/04/08 05:41:47;;;;;;;11.05;4.90;;;;;;;;;;5002424;28;20038;-69
2023/04/08 05:44:13;;;;;;;12.35;5.15;;;;;;;;;;5005488;28;20108;-69
2023/04/08 05:46:38;;;;;;;10.93;4.82;;;;;;;;;;5006551;28;20029;-68
2023/04/08 05:49:04;;;;;;;11.93;5.22;;;;;;;;;;5000240;28;20120;-69
2023/04/08 05:51:29;;;;;;;12.10;5.07;;;;;;;;;;4997662;28;20050;-69
2023/04/08 05:53:54;;;;;;;13.15;5.45;;;;;;;;;;5001452;28;20040;-69
2023/04/08 05:56:20;;;;;;;11.85;5.18;;;;;;;;;;5007159;28;20064;-69
2023/04/08 05:58:46;;;;;;;10.65;5.10;;;;;;;;;;5005544;28;20108;-69
2023/04/08 06:01:11;;;;;;;11.25;5.05;;;;;;;;;;5001371;28;20034;-69
2023/04/08 06:03:36;;;;;;;10.13;5.18;;;;;;;;;;5004990;28;20037;-69
2023/04/08 06:06:02;;;;;;;13.10;5.35;;;;;;;;;;5005243;28;20180;-69
2023/04/08 06:08:27;;;;;;;11.38;5.65;;;;;;;;;;5007042;28;20038;-69
2023/04/08 06:10:53;;;;;;;13.50;5.32;;;;;;;;;;5006357;28;20068;-70
2023/04/08 06:13:19;;;;;;;14.40;5.90;;;;;;;;;;5007352;28;20025;-69
2023/04/08 06:15:45;;;;;;;13.48;5.38;;;;;;;;;;5006973;28;20076;-69
2023/04/08 06:18:10;;;;;;;19.83;5.80;;;;;;;;;;4999646;28;20170;-69
2023/04/08 06:20:35;;;;;;;12.50;5.10;;;;;;;;;;5006005;28;20041;-69
2023/04/08 06:23:01;;;;;;;13.80;5.80;;;;;;;;;;5007682;28;20033;-69
2023/04/08 06:25:26;;;;;;;10.38;5.30;;;;;;;;;;5007258;28;20029;-69
2023/04/08 06:27:51;;;;;;;13.18;5.40;;;;;;;;;;4995088;28;20053;-69
2023/04/08 06:30:17;;;;;;;12.52;5.15;;;;;;;;;;4987757;28;20034;-69
2023/04/08 06:32:42;;;;;;;11.68;5.35;;;;;;;;;;4993440;28;20038;-69
2023/04/08 06:35:08;;;;;;;12.90;5.25;;;;;;;;;;4998739;28;20057;-69
2023/04/08 06:37:37;;;;;;;11.70;5.20;;;;;;;;;;5006309;28;20057;-69
2023/04/08 06:40:03;;;;;;;15.63;5.00;;;;;;;;;;5005537;28;20045;-69
2023/04/08 06:42:29;;;;;;;12.32;5.10;;;;;;;;;;5005525;28;20042;-69
2023/04/08 06:44:55;;;;;;;11.48;5.43;;;;;;;;;;5006726;28;20053;-69
2023/04/08 06:47:20;;;;;;;9.65;4.38;;;;;;;;;;5004722;28;20049;-69
2023/04/08 06:49:46;;;;;;;11.48;5.03;;;;;;;;;;5004998;28;20087;-69
2023/04/08 06:52:11;;;;;;;12.13;5.00;;;;;;;;;;5011761;28;20172;-69
2023/04/08 06:54:36;;;;;;;11.70;4.95;;;;;;;;;;5001875;28;20042;-69
2023/04/08 06:57:03;;;;;;;12.90;5.15;;;;;;;;;;4986606;28;20063;-69
2023/04/08 06:59:28;;;;;;;11.40;4.97;;;;;;;;;;4991029;28;20030;-69
2023/04/08 07:01:54;;;;;;;11.85;4.70;;;;;;;;;;5001016;28;20036;-68
2023/04/08 07:04:19;;;;;;;17.00;5.70;;;;;;;;;;4999738;28;20021;-68
2023/04/08 07:06:45;;;;;;;12.88;5.55;;;;;;;;;;5004819;28;20033;-69
2023/04/08 07:09:11;;;;;;;12.45;5.35;;;;;;;;;;5005540;28;20041;-69
2023/04/08 07:11:36;;;;;;;16.75;5.95;;;;;;;;;;5002866;28;20045;-69
2023/04/08 07:14:01;;;;;;;14.40;7.15;;;;;;;;;;5006036;28;20030;-69
2023/04/08 07:16:27;;;;;;;17.30;5.50;;;;;;;;;;5005686;28;20026;-68
2023/04/08 07:18:52;;;;;;;12.73;5.00;;;;;;;;;;5005237;28;20057;-69
2023/04/08 07:21:18;;;;;;;11.98;5.13;;;;;;;;;;5005345;28;20761;-69
2023/04/08 07:23:43;;;;;;;14.57;5.68;;;;;;;;;;5005764;28;20038;-68
2023/04/08 07:26:08;;;;;;;13.60;4.63;;;;;;;;;;5005144;28;20042;-69
2023/04/08 07:28:34;;;;;;;12.02;5.00;;;;;;;;;;5003943;28;20060;-69
2023/04/08 07:31:16;;;;;;;17.30;5.45;;;;;;;;;;5009822;28;20062;-68
2023/04/08 07:33:42;;;;;;;14.52;5.05;;;;;;;;;;5009490;28;20030;-69
2023/04/08 07:36:09;;;;;;;14.05;5.20;;;;;;;;;;5004800;28;20088;-69
2023/04/08 07:38:34;;;;;;;11.15;4.95;;;;;;;;;;5021539;28;20120;-69
2023/04/08 07:41:00;;;;;;;12.75;5.75;;;;;;;;;;5010173;28;20578;-68
2023/04/08 07:43:25;;;;;;;15.63;5.13;;;;;;;;;;5004868;28;20018;-68
2023/04/08 07:45:51;;;;;;;15.90;5.50;;;;;;;;;;4998939;28;20582;-68
2023/04/08 07:48:16;;;;;;;15.98;5.07;;;;;;;;;;5019161;28;20042;-69
2023/04/08 07:50:41;;;;;;;14.98;6.18;;;;;;;;;;5016918;28;20036;-69
2023/04/08 07:53:07;;;;;;;12.48;5.32;;;;;;;;;;5004796;28;20046;-69
2023/04/08 07:55:35;;;;;;;14.98;6.10;;;;;;;;;;5005712;28;20026;-69
2023/04/08 07:58:01;;;;;;;13.13;5.10;;;;;;;;;;5005176;28;20038;-68
2023/04/08 08:00:29;;;;;;;14.48;5.50;;;;;;;;;;5001117;28;20045;-68
2023/04/08 08:02:55;;;;;;;11.13;5.22;;;;;;;;;;5009259;28;20038;-69
2023/04/08 08:05:20;;;;;;;14.23;5.95;;;;;;;;;;5003153;28;20084;-69
2023/04/08 08:07:45;;;;;;;15.43;6.63;;;;;;;;;;5012033;28;20484;-68
2023/04/08 08:10:11;;;;;;;9.80;4.30;;;;;;;;;;5007569;28;20045;-69
2023/04/08 08:12:36;;;;;;;13.70;5.57;;;;;;;;;;5005195;28;20037;-68
2023/04/08 08:15:02;;;;;;;10.80;4.03;;;;;;;;;;5011242;28;20037;-69
2023/04/08 08:17:29;;;;;;;10.02;5.15;;;;;;;;;;5007978;28;20030;-69
2023/04/08 08:19:55;;;;;;;11.25;4.90;;;;;;;;;;5005852;28;20033;-69
2023/04/08 08:22:21;;;;;;;10.93;5.35;;;;;;;;;;4996051;28;20527;-69
2023/04/08 08:24:46;;;;;;;10.00;4.63;;;;;;;;;;5004748;28;20617;-69
2023/04/08 08:27:11;;;;;;;13.60;5.78;;;;;;;;;;5005183;28;20405;-69
2023/04/08 08:29:37;;;;;;;12.82;5.00;;;;;;;;;;5004901;28;20026;-69
2023/04/08 08:32:03;;;;;;;14.48;6.00;;;;;;;;;;4996773;28;20117;-69
2023/04/08 08:34:28;;;;;;;12.68;5.30;;;;;;;;;;4999584;28;20537;-69
2023/04/08 08:36:54;;;;;;;13.27;5.55;;;;;;;;;;5002899;28;20056;-68
2023/04/08 08:39:20;;;;;;;14.25;5.43;;;;;;;;;;5002901;28;20030;-69
2023/04/08 08:41:45;;;;;;;13.05;5.72;;;;;;;;;;5004066;28;20425;-69
2023/04/08 08:44:11;;;;;;;13.90;6.10;;;;;;;;;;5001120;28;20062;-69
2023/04/08 08:46:43;;;;;;;15.40;6.60;;;;;;;;;;5009080;28;20033;-69
2023/04/08 08:49:08;;;;;;;13.20;6.07;;;;;;;;;;5005420;28;20061;-69
2023/04/08 08:51:34;;;;;;;14.60;5.95;;;;;;;;;;4989893;28;20066;-69
2023/04/08 08:54:03;;;;;;;13.75;6.00;;;;;;;;;;4988637;28;20117;-69
2023/04/08 08:56:29;;;;;;;10.30;4.72;;;;;;;;;;5006346;28;20072;-69
2023/04/08 08:58:54;;;;;;;16.80;7.22;;;;;;;;;;5008914;28;20394;-68
2023/04/08 09:01:33;;;;;;;13.52;6.43;;;;;;;;;;5015296;28;20041;-69
2023/04/08 09:04:17;;;;;;;13.32;5.97;;;;;;;;;;5008303;28;20529;-69
2023/04/08 09:06:44;;;;;;;14.68;6.32;;;;;;;;;;5008516;28;20648;-69
2023/04/08 09:09:10;;;;;;;11.82;6.60;;;;;;;;;;5008518;28;20048;-69
2023/04/08 09:11:37;;;;;;;16.73;6.63;;;;;;;;;;5008572;28;20041;-69
2023/04/08 09:14:03;;;;;;;17.05;6.15;;;;;;;;;;5008493;28;20041;-69
2023/04/08 09:16:29;;;;;;;16.58;7.50;;;;;;;;;;5009350;28;20040;-69
2023/04/08 09:19:08;;;;;;;18.23;7.60;;;;;;;;;;5007112;28;20092;-69
2023/04/08 09:21:34;;;;;;;17.88;8.38;;;;;;;;;;5005588;28;20049;-69
2023/04/08 09:23:59;;;;;;;19.08;7.38;;;;;;;;;;5008373;28;20045;-69
2023/04/08 09:26:26;;;;;;;16.85;6.53;;;;;;;;;;5008652;28;20038;-70
2023/04/08 09:29:04;;;;;;;13.30;6.53;;;;;;;;;;5007768;28;20037;-70
2023/04/08 09:31:32;;;;;;;20.10;7.28;;;;;;;;;;5008577;28;20188;-69
2023/04/08 09:34:03;;;;;;;15.07;7.32;;;;;;;;;;5019415;28;20045;-69
2023/04/08 09:36:28;;;;;;;17.50;6.78;;;;;;;;;;5011161;28;20034;-70
2023/04/08 09:38:54;;;;;;;16.65;7.10;;;;;;;;;;5013570;28;20042;-70
2023/04/08 09:41:22;;;;;;;15.07;6.85;;;;;;;;;;5008556;28;20765;-70
2023/04/08 09:43:50;;;;;;;15.15;7.13;;;;;;;;;;5013412;28;20040;-70
2023/04/08 09:46:17;;;;;;;17.83;7.30;;;;;;;;;;5020066;28;20018;-70
2023/04/08 09:48:50;;;;;;;15.68;6.80;;;;;;;;;;5002727;28;20523;-70
2023/04/08 09:51:18;;;;;;;15.90;6.68;;;;;;;;;;5006239;28;20029;-69
2023/04/08 09:53:51;;;;;;;12.50;6.15;;;;;;;;;;5004424;28;20045;-68
2023/04/08 09:56:18;;;;;;;12.57;6.53;;;;;;;;;;5004759;28;20046;-69
2023/04/08 09:59:10;;;;;;;16.67;6.88;;;;;;;;;;5004095;28;20041;-69
2023/04/08 10:01:38;;;;;;;16.65;7.30;;;;;;;;;;4986718;28;20129;-69
2023/04/08 10:04:08;;;;;;;14.65;6.47;;;;;;;;;;4995125;28;20045;-70
2023/04/08 10:06:34;;;;;;;14.48;7.03;;;;;;;;;;5008839;28;20046;-70
2023/04/08 10:09:01;;;;;;;17.73;7.47;;;;;;;;;;5007676;28;20038;-71
2023/04/08 10:11:27;;;;;;;17.27;7.28;;;;;;;;;;5005582;28;20124;-70
2023/04/08 10:13:53;;;;;;;13.10;5.72;;;;;;;;;;5005381;28;20033;-70
2023/04/08 10:16:24;;;;;;;19.70;7.65;;;;;;;;;;5007885;28;20018;-70
2023/04/08 10:18:54;;;;;;;16.38;6.70;;;;;;;;;;5007282;28;20140;-70
2023/04/08 10:21:31;;;;;;;17.73;7.43;;;;;;;;;;5005575;28;20509;-70
2023/04/08 10:23:58;;;;;;;19.38;6.95;;;;;;;;;;5006202;28;20623;-70
2023/04/08 10:26:42;;;;;;;17.70;7.15;;;;;;;;;;5006582;28;20042;-70
2023/04/08 10:29:16;;;;;;;17.05;7.18;;;;;;;;;;5004862;28;20044;-70
2023/04/08 10:31:41;;;;;;;17.83;7.43;;;;;;;;;;4984007;28;20044;-69
2023/04/08 10:34:21;;;;;;;23.02;7.00;;;;;;;;;;4984974;28;20038;-69
2023/04/08 10:36:48;;;;;;;16.75;6.72;;;;;;;;;;5000707;28;20141;-72
2023/04/08 10:39:15;;;;;;;24.15;7.63;;;;;;;;;;4981891;28;20413;-71
2023/04/08 10:41:44;;;;;;;16.63;6.55;;;;;;;;;;4994080;28;20046;-71
2023/04/08 10:44:18;;;;;;;19.50;7.25;;;;;;;;;;4998937;28;20046;-70
2023/04/08 10:46:49;;;;;;;28.40;8.93;;;;;;;;;;5000236;28;20627;-71
2023/04/08 10:49:15;;;;;;;19.02;6.50;;;;;;;;;;5003032;28;20041;-70
2023/04/08 10:51:42;;;;;;;18.13;7.20;;;;;;;;;;5003822;28;20091;-71
2023/04/08 10:54:09;;;;;;;17.17;6.15;;;;;;;;;;5002673;28;20458;-71
2023/04/08 10:56:35;;;;;;;17.95;6.50;;;;;;;;;;5005722;28;20045;-70
2023/04/08 10:59:01;;;;;;;21.50;7.32;;;;;;;;;;5009750;28;20148;-72
2023/04/08 11:01:26;;;;;;;19.50;6.53;;;;;;;;;;5014470;28;20034;-73
2023/04/08 11:03:52;;;;;;;18.77;6.60;;;;;;;;;;5001456;28;20045;-71
2023/04/08 11:06:18;;;;;;;11.68;5.20;;;;;;;;;;4999580;28;20167;-70
2023/04/08 11:08:44;;;;;;;12.85;5.70;;;;;;;;;;5003760;28;20042;-70
2023/04/08 11:11:10;;;;;;;11.63;5.40;;;;;;;;;;5003767;28;20049;-70
2023/04/08 11:13:39;;;;;;;16.10;6.03;;;;;;;;;;5005215;28;20030;-71
2023/04/08 11:16:06;;;;;;;23.10;6.93;;;;;;;;;;4998529;28;20037;-70
2023/04/08 11:18:33;;;;;;;15.57;6.43;;;;;;;;;;5004456;28;20168;-70
2023/04/08 11:20:59;;;;;;;16.92;6.20;;;;;;;;;;5005838;28;20064;-70
2023/04/08 11:23:24;;;;;;;16.85;6.28;;;;;;;;;;5005463;28;20568;-70
2023/04/08 11:25:50;;;;;;;16.48;6.15;;;;;;;;;;5001542;28;20026;-69
2023/04/08 11:28:16;;;;;;;19.63;6.50;;;;;;;;;;5004787;28;20033;-70
2023/04/08 11:30:42;;;;;;;17.60;6.95;;;;;;;;;;5005542;28;20567;-70
2023/04/08 11:33:08;;;;;;;23.48;6.43;;;;;;;;;;5004660;28;20038;-70
2023/04/08 11:35:33;;;;;;;21.33;6.35;;;;;;;;;;5004822;28;20117;-70
2023/04/08 11:37:59;;;;;;;22.40;7.65;;;;;;;;;;4999572;28;20037;-70
2023/04/08 11:40:25;;;;;;;16.92;7.03;;;;;;;;;;5001242;28;20029;-70
2023/04/08 11:42:51;;;;;;;22.25;7.88;;;;;;;;;;4997281;28;20436;-70
2023/04/08 11:45:18;;;;;;;16.15;6.40;;;;;;;;;;5002247;28;20065;-70
2023/04/08 11:47:46;;;;;;;13.82;6.15;;;;;;;;;;4991885;28;20041;-70
2023/04/08 11:50:11;;;;;;;23.65;7.18;;;;;;;;;;5005450;28;20041;-70
2023/04/08 11:52:45;;;;;;;18.50;7.68;;;;;;;;;;5005645;28;20056;-70
2023/04/08 11:55:20;;;;;;;19.77;7.60;;;;;;;;;;5005687;28;20041;-70
2023/04/08 11:57:47;;;;;;;21.42;7.70;;;;;;;;;;5004054;28;20602;-70
2023/04/08 12:00:12;;;;;;;23.02;6.93;;;;;;;;;;5003863;28;20061;-70
2023/04/08 12:02:38;;;;;;;12.90;5.38;;;;;;;;;;4988433;28;20505;-70
2023/04/08 12:05:04;;;;;;;17.42;6.78;;;;;;;;;;5001863;28;20545;-70
2023/04/08 12:07:29;;;;;;;16.77;6.85;;;;;;;;;;5005980;28;20026;-70
2023/04/08 12:09:55;;;;;;;17.55;6.75;;;;;;;;;;5004953;28;20033;-70
2023/04/08 12:12:20;;;;;;;18.25;7.25;;;;;;;;;;5004740;28;20072;-70
2023/04/08 12:14:45;;;;;;;21.25;7.40;;;;;;;;;;5004574;28;20115;-70
2023/04/08 12:17:11;;;;;;;17.30;6.20;;;;;;;;;;5005404;28;20069;-70
2023/04/08 12:19:36;;;;;;;19.48;7.53;;;;;;;;;;5006761;28;20412;-70
2023/04/08 12:22:02;;;;;;;18.38;7.15;;;;;;;;;;5008039;28;20042;-70
2023/04/08 12:24:27;;;;;;;18.55;7.60;;;;;;;;;;5012537;28;20038;-70
2023/04/08 12:26:52;;;;;;;23.27;7.55;;;;;;;;;;5008657;28;20053;-70
2023/04/08 12:29:18;;;;;;;29.02;9.57;;;;;;;;;;5007565;28;20042;-70
2023/04/08 12:31:43;;;;;;;21.30;8.30;;;;;;;;;;5009428;28;20066;-70
2023/04/08 12:34:08;;;;;;;21.88;7.05;;;;;;;;;;5008854;28;20212;-70
2023/04/08 12:36:35;;;;;;;20.55;7.45;;;;;;;;;;5007820;28;20053;-70
2023/04/08 12:39:00;;;;;;;16.73;7.63;;;;;;;;;;5008061;28;20038;-70
2023/04/08 12:41:26;;;;;;;22.05;8.25;;;;;;;;;;5007689;28;20041;-70
2023/04/08 12:43:51;;;;;;;23.88;7.72;;;;;;;;;;5006275;28;20509;-70
2023/04/08 12:46:16;;;;;;;19.70;8.85;;;;;;;;;;5001884;28;20022;-70
2023/04/08 12:48:43;;;;;;;19.77;8.77;;;;;;;;;;5007333;28;20038;-70
2023/04/08 12:51:09;;;;;;;21.15;8.52;;;;;;;;;;5007618;28;20064;-70
2023/04/08 12:53:34;;;;;;;23.88;8.75;;;;;;;;;;5006036;28;20041;-69
2023/04/08 12:56:00;;;;;;;24.92;9.15;;;;;;;;;;5005661;28;20026;-70
2023/04/08 12:58:25;;;;;;;52.15;38.05;;;;;;;;;;5005546;28;20034;-71
2023/04/08 13:00:51;;;;;;;23.38;9.45;;;;;;;;;;5006162;28;20552;-69
2023/04/08 13:03:16;;;;;;;22.83;8.38;;;;;;;;;;5006730;28;20496;-70
2023/04/08 13:05:43;;;;;;;25.27;9.45;;;;;;;;;;5006008;28;20045;-70
2023/04/08 13:08:08;;;;;;;22.90;8.70;;;;;;;;;;5006100;28;20034;-71
2023/04/08 13:10:34;;;;;;;21.17;9.18;;;;;;;;;;5005419;28;20061;-70
2023/04/08 13:12:59;;;;;;;23.27;9.18;;;;;;;;;;5004812;28;20041;-70
2023/04/08 13:15:25;;;;;;;29.02;9.75;;;;;;;;;;5001181;28;20458;-70
2023/04/08 13:17:50;;;;;;;19.52;8.02;;;;;;;;;;4999493;28;20069;-70
2023/04/08 13:20:16;;;;;;;18.08;8.00;;;;;;;;;;5009519;28;20108;-70
2023/04/08 13:22:41;;;;;;;24.15;9.25;;;;;;;;;;5005722;28;20021;-70
2023/04/08 13:25:07;;;;;;;21.98;8.50;;;;;;;;;;5004998;28;20054;-71
2023/04/08 13:27:33;;;;;;;20.38;8.30;;;;;;;;;;5001438;28;20068;-71
2023/04/08 13:29:58;;;;;;;16.42;7.70;;;;;;;;;;5007655;28;20667;-70
2023/04/08 13:32:24;;;;;;;15.82;7.55;;;;;;;;;;5005744;28;20448;-70
2023/04/08 13:34:49;;;;;;;16.95;8.10;;;;;;;;;;5007282;28;20054;-70
2023/04/08 13:37:14;;;;;;;21.05;8.85;;;;;;;;;;5006838;28;20018;-70
2023/04/08 13:39:40;;;;;;;15.60;8.05;;;;;;;;;;5003615;28;20045;-70
2023/04/08 13:42:05;;;;;;;14.77;7.13;;;;;;;;;;5012443;28;20539;-69
2023/04/08 13:44:32;;;;;;;13.35;6.13;;;;;;;;;;4995799;28;20061;-70
2023/04/08 13:46:57;;;;;;;16.88;8.05;;;;;;;;;;5010924;28;20026;-71
2023/04/08 13:49:22;;;;;;;17.20;7.60;;;;;;;;;;5006742;28;20022;-70
2023/04/08 13:51:48;;;;;;;16.30;7.70;;;;;;;;;;5007037;28;20045;-70
2023/04/08 13:54:13;;;;;;;17.33;7.78;;;;;;;;;;5015883;28;20041;-70
2023/04/08 13:56:39;;;;;;;17.20;7.43;;;;;;;;;;5005925;28;20038;-70
2023/04/08 13:59:04;;;;;;;13.48;6.18;;;;;;;;;;5000974;28;20053;-70
2023/04/08 14:01:30;;;;;;;16.35;7.78;;;;;;;;;;5004432;28;20021;-71
2023/04/08 14:03:55;;;;;;;17.05;7.30;;;;;;;;;;5004698;28;20117;-70
2023/04/08 14:06:21;;;;;;;11.98;6.22;;;;;;;;;;5007164;28;20543;-70
2023/04/08 14:08:46;;;;;;;12.38;5.90;;;;;;;;;;5004236;28;20584;-71
2023/04/08 14:11:11;;;;;;;14.90;6.75;;;;;;;;;;5007910;28;20066;-71
2023/04/08 14:13:37;;;;;;;15.10;6.93;;;;;;;;;;5004149;28;20535;-71
2023/04/08 14:16:02;;;;;;;16.88;6.85;;;;;;;;;;5005842;28;20045;-71
2023/04/08 14:18:28;;;;;;;13.38;6.88;;;;;;;;;;5001389;28;20030;-71
2023/04/08 14:20:53;;;;;;;16.05;7.40;;;;;;;;;;4999954;28;20042;-71
2023/04/08 14:23:19;;;;;;;13.98;6.75;;;;;;;;;;5004007;28;20651;-71
2023/04/08 14:25:44;;;;;;;14.55;6.82;;;;;;;;;;5002955;28;20041;-71
2023/04/08 14:28:10;;;;;;;13.73;7.45;;;;;;;;;;5002604;28;20069;-71